Time;durP1;ratioP1;P1;durP2;ratioP2;P2;SDS_P1;SDS_P2;PMS_P1;PMS_P2;Temp;Humidity;BMP_temperature;BMP_pressure;BME280_temperature;BME280_humidity;BME280_pressure;Samples;Min_cycle;Max_cycle;Signal;HPM_P1;HPM_P2
2021/07/20 00:01:30;;;;;;;7.57;5.20;;;;;;;29.23;48.79;100144.50;128388;1087;64138;-86
2021/07/20 00:03:56;;;;;;;5.70;4.93;;;;;;;29.22;48.64;100144.69;128348;1086;64217;-87
2021/07/20 00:06:33;;;;;;;7.17;5.00;;;;;;;29.23;48.25;100140.95;128029;1087;64123;-87
2021/07/20 00:09:00;;;;;;;6.80;5.17;;;;;;;29.22;48.68;100142.80;128354;1087;64387;-86
2021/07/20 00:11:29;;;;;;;6.53;5.43;;;;;;;29.21;48.85;100130.23;128353;1087;64285;-86
2021/07/20 00:13:59;;;;;;;6.57;5.03;;;;;;;29.21;48.70;100135.66;128327;1087;64131;-86
2021/07/20 00:16:25;;;;;;;7.10;5.13;;;;;;;29.21;48.66;100135.66;128347;1086;64156;-86
2021/07/20 00:18:54;;;;;;;5.67;4.80;;;;;;;29.21;48.73;100138.38;128349;1086;64268;-87
2021/07/20 00:21:25;;;;;;;6.43;5.50;;;;;;;29.21;48.45;100130.23;128395;1087;64216;-86
2021/07/20 00:24:01;;;;;;;6.50;5.07;;;;;;;29.22;48.58;100133.81;128380;1087;64237;-87
2021/07/20 00:26:27;;;;;;;7.60;5.30;;;;;;;29.21;48.88;100127.52;128361;1087;64291;-86
2021/07/20 00:28:57;;;;;;;6.67;5.10;;;;;;;29.21;48.55;100129.39;128365;1087;64767;-85
2021/07/20 00:31:23;;;;;;;6.20;4.90;;;;;;;29.20;48.48;100125.84;128377;1087;64227;-86
2021/07/20 00:33:49;;;;;;;5.73;4.97;;;;;;;29.20;48.65;100134.00;128351;1084;64279;-86
2021/07/20 00:36:16;;;;;;;5.90;4.87;;;;;;;29.20;48.58;100127.70;128340;1087;64217;-85
2021/07/20 00:38:51;;;;;;;7.10;5.27;;;;;;;29.19;48.41;100126.86;128363;1087;64281;-86
2021/07/20 00:41:18;;;;;;;5.93;5.10;;;;;;;29.21;48.42;100126.68;128383;1087;64157;-86
2021/07/20 00:43:44;;;;;;;7.60;5.27;;;;;;;29.21;48.91;100118.53;128379;1087;64092;-87
2021/07/20 00:46:16;;;;;;;6.07;4.97;;;;;;;29.20;48.49;100116.83;128383;1086;64159;-87
2021/07/20 00:48:47;;;;;;;6.93;5.10;;;;;;;29.20;48.65;100114.11;128341;1087;64102;-86
2021/07/20 00:51:22;;;;;;;6.37;5.00;;;;;;;29.20;48.68;100111.39;128378;1087;64192;-87
2021/07/20 00:53:57;;;;;;;6.10;5.00;;;;;;;29.20;48.69;100116.83;128373;1086;65538;-87
2021/07/20 00:56:30;;;;;;;7.40;5.00;;;;;;;29.19;48.54;100106.97;128343;1086;64654;-87
2021/07/20 00:59:13;;;;;;;6.10;5.07;;;;;;;29.19;48.53;100107.84;128346;1086;64957;-86
2021/07/20 01:01:40;;;;;;;5.60;4.97;;;;;;;29.19;48.59;100101.54;128371;1087;64295;-86
2021/07/20 01:04:11;;;;;;;6.33;5.10;;;;;;;29.18;48.79;100103.42;128364;1085;64353;-86
2021/07/20 01:06:37;;;;;;;5.73;4.87;;;;;;;29.19;48.55;100096.97;128383;1087;64128;-86
2021/07/20 01:09:04;;;;;;;6.87;5.07;;;;;;;29.18;48.47;100097.98;128386;1086;64099;-86
2021/07/20 01:11:32;;;;;;;8.57;5.50;;;;;;;29.18;48.82;100100.70;128405;1085;64104;-86
2021/07/20 01:14:07;;;;;;;6.80;4.87;;;;;;;29.18;48.56;100100.70;128033;1085;64655;-86
2021/07/20 01:16:34;;;;;;;6.70;4.63;;;;;;;29.18;48.50;100102.59;128395;1086;64189;-86
2021/07/20 01:19:03;;;;;;;5.70;4.90;;;;;;;29.18;48.51;100097.98;128390;1086;64166;-86
2021/07/20 01:21:29;;;;;;;6.13;5.03;;;;;;;29.18;48.84;100108.86;128422;1085;64141;-87
2021/07/20 01:23:56;;;;;;;6.60;5.10;;;;;;;29.18;48.69;100097.98;128008;1087;64169;-87
2021/07/20 01:26:26;;;;;;;6.27;4.97;;;;;;;29.17;48.70;100098.17;128360;1086;64134;-87
2021/07/20 01:29:02;;;;;;;;;;;;;;;29.17;48.86;100107.16;128397;1087;64882;-86
2021/07/20 01:31:29;;;;;;;5.90;4.80;;;;;;;29.15;48.96;100098.36;128387;1086;64240;-87
2021/07/20 01:33:56;;;;;;;5.93;4.87;;;;;;;29.16;48.80;100101.91;128357;1086;63949;-87
2021/07/20 01:36:25;;;;;;;5.53;4.87;;;;;;;29.15;48.47;100098.36;128380;1086;64205;-87
2021/07/20 01:38:51;;;;;;;6.07;4.80;;;;;;;29.16;48.60;100100.05;128367;1087;64131;-87
2021/07/20 01:41:22;;;;;;;6.57;5.00;;;;;;;29.15;48.48;100101.08;128382;1087;64163;-87
2021/07/20 01:43:59;;;;;;;6.80;5.10;;;;;;;29.15;48.91;100103.80;128355;1087;64035;-87
2021/07/20 01:46:27;;;;;;;7.20;4.80;;;;;;;29.16;48.70;100101.91;128385;1087;64134;-87
2021/07/20 01:48:57;;;;;;;6.53;4.77;;;;;;;29.16;48.77;100110.92;128388;1087;63945;-87
2021/07/20 01:51:23;;;;;;;5.67;4.90;;;;;;;29.16;48.57;100107.34;128373;1087;64918;-87
2021/07/20 01:53:53;;;;;;;5.83;4.77;;;;;;;29.15;48.76;100103.80;128366;1087;64284;-86
2021/07/20 01:56:20;;;;;;;7.43;4.60;;;;;;;29.15;48.73;100111.95;128348;1085;64304;-87
2021/07/20 01:58:47;;;;;;;7.50;4.90;;;;;;;29.15;48.63;100106.51;128404;1087;64451;-86
2021/07/20 02:01:24;;;;;;;6.10;4.83;;;;;;;29.16;48.66;100112.78;128402;1087;64639;-87
2021/07/20 02:09:19;;;;;;;7.25;4.70;;;;;;;29.15;48.99;100105.64;128343;1085;63949;-86
2021/07/20 02:11:46;;;;;;;5.63;4.53;;;;;;;29.15;49.00;100103.80;128403;1087;64184;-86
2021/07/20 02:14:14;;;;;;;6.17;4.73;;;;;;;29.15;48.71;100103.80;128398;1085;64131;-86
2021/07/20 02:16:46;;;;;;;6.87;4.53;;;;;;;29.15;48.57;100101.08;128359;1087;64349;-86
2021/07/20 02:19:19;;;;;;;8.10;5.23;;;;;;;29.16;49.05;100108.21;128390;1087;64303;-88
2021/07/20 02:21:51;;;;;;;6.00;4.73;;;;;;;29.15;48.52;100102.92;128420;1087;64153;-86
2021/07/20 02:24:19;;;;;;;8.30;4.60;;;;;;;29.15;48.68;100102.92;128353;1085;64117;-87
2021/07/20 02:26:46;;;;;;;5.63;4.63;;;;;;;29.14;48.62;100110.25;128361;1087;64251;-86
2021/07/20 02:29:13;;;;;;;6.97;4.83;;;;;;;29.13;48.93;100105.83;128367;1085;64108;-86
2021/07/20 02:31:39;;;;;;;5.55;4.85;;;;;;;29.14;48.82;100107.53;128388;1086;64099;-86
2021/07/20 02:34:06;;;;;;;5.93;4.93;;;;;;;29.15;48.64;100108.36;128361;1087;64234;-87
2021/07/20 02:36:41;;;;;;;7.30;4.30;;;;;;;29.15;48.81;100108.36;128357;1085;64648;-86
2021/07/20 02:39:08;;;;;;;6.23;4.90;;;;;;;29.14;48.89;100103.98;128366;1087;64374;-86
2021/07/20 02:41:35;;;;;;;6.90;5.00;;;;;;;29.14;48.78;100110.25;128375;1087;64880;-86
2021/07/20 02:44:02;;;;;;;5.47;4.60;;;;;;;29.15;48.82;100106.51;128370;1087;64163;-87
2021/07/20 02:46:29;;;;;;;5.80;4.50;;;;;;;29.14;48.74;100099.38;128353;1085;64217;-87
2021/07/20 02:48:59;;;;;;;5.97;4.97;;;;;;;29.14;48.74;100106.70;128390;1085;64154;-86
2021/07/20 02:51:26;;;;;;;5.83;4.70;;;;;;;29.14;48.94;100103.98;128373;1085;64013;-86
2021/07/20 02:53:53;;;;;;;7.00;4.73;;;;;;;29.14;48.56;100112.97;128395;1087;64214;-86
2021/07/20 02:56:23;;;;;;;6.00;4.93;;;;;;;29.13;48.79;100103.11;128358;1086;64348;-86
2021/07/20 02:58:51;;;;;;;6.33;4.60;;;;;;;29.14;48.81;100106.70;128354;1087;64616;-86
2021/07/20 03:01:20;;;;;;;6.93;4.50;;;;;;;29.13;48.82;100113.15;128433;1085;64310;-87
2021/07/20 03:03:46;;;;;;;5.67;4.57;;;;;;;29.13;48.71;100110.43;128348;1085;64082;-86
2021/07/20 03:06:13;;;;;;;6.00;4.60;;;;;;;29.12;48.57;100112.28;128353;1087;64149;-85
2021/07/20 03:08:39;;;;;;;6.00;4.67;;;;;;;29.12;48.61;100115.00;128029;1087;64629;-86
2021/07/20 03:11:08;;;;;;;5.87;4.67;;;;;;;29.12;48.72;100117.72;128381;1085;62161;-87
2021/07/20 03:13:39;;;;;;;5.47;4.50;;;;;;;29.13;49.19;100116.70;128335;1087;64266;-86
2021/07/20 03:16:15;;;;;;;6.27;4.43;;;;;;;29.13;48.69;100115.87;128362;1087;64096;-87
2021/07/20 03:18:43;;;;;;;7.13;5.00;;;;;;;29.13;48.57;100115.87;128377;1087;64280;-87
2021/07/20 03:21:10;;;;;;;;;;;;;;;29.12;49.15;100111.45;128409;1087;63971;-86
2021/07/20 03:23:36;;;;;;;5.10;4.60;;;;;;;29.12;49.00;100125.04;128387;1087;64175;-87
2021/07/20 03:26:03;;;;;;;5.53;4.53;;;;;;;29.12;48.82;100120.44;128372;1085;64696;-87
2021/07/20 03:28:30;;;;;;;6.43;4.80;;;;;;;29.12;48.69;100130.47;128341;1085;64613;-86
2021/07/20 03:30:57;;;;;;;5.77;4.50;;;;;;;29.13;48.61;100129.45;128414;1087;64116;-87
2021/07/20 03:33:38;;;;;;;;;;;;;;;;;;;;;
2021/07/20 03:36:08;;;;;;;5.83;4.70;;;;;;;29.12;49.07;100134.02;128372;1087;64722;-86
2021/07/20 03:38:34;;;;;;;6.20;4.77;;;;;;;29.13;48.86;100146.59;128400;1086;64285;-87
2021/07/20 03:41:08;;;;;;;6.10;4.60;;;;;;;29.14;48.62;100153.73;128422;1087;64136;-87
2021/07/20 03:43:34;;;;;;;6.50;4.90;;;;;;;29.13;48.93;100153.91;128409;1087;64151;-87
2021/07/20 03:46:02;;;;;;;5.50;4.60;;;;;;;29.14;49.04;100170.03;128410;1087;64281;-87
2021/07/20 03:48:32;;;;;;;7.40;4.93;;;;;;;29.14;48.86;100177.35;128395;1086;64135;-88
2021/07/20 03:50:59;;;;;;;7.20;4.97;;;;;;;29.15;48.74;100170.87;128369;1087;64155;-87
2021/07/20 03:53:29;;;;;;;7.73;4.97;;;;;;;29.15;48.99;100170.87;128381;1086;64144;-86
2021/07/20 03:55:57;;;;;;;6.03;4.90;;;;;;;29.14;48.81;100172.75;128396;1085;64590;-86
2021/07/20 03:58:25;;;;;;;5.50;4.30;;;;;;;29.15;48.71;100173.59;128358;1087;64426;-86
2021/07/20 04:01:12;;;;;;;5.50;4.50;;;;;;;29.15;48.66;100170.87;128394;1087;64154;-87
2021/07/20 04:03:38;;;;;;;7.07;5.00;;;;;;;29.14;48.97;100178.19;128391;1087;64176;-86
2021/07/20 04:06:07;;;;;;;5.40;4.90;;;;;;;29.15;49.08;100173.59;128349;1087;64617;-86
2021/07/20 04:08:36;;;;;;;5.28;4.45;;;;;;;29.15;48.92;100171.73;128370;1087;64285;-86
2021/07/20 04:11:02;;;;;;;6.33;4.87;;;;;;;29.14;48.67;100163.77;128381;1087;64140;-86
2021/07/20 04:13:29;;;;;;;7.13;4.47;;;;;;;29.13;48.66;100164.78;128369;1086;64134;-85
2021/07/20 04:16:00;;;;;;;7.13;4.87;;;;;;;29.12;49.09;100168.52;128408;1087;64217;-85
2021/07/20 04:18:34;;;;;;;7.07;4.93;;;;;;;29.11;48.75;100170.41;128373;1085;64278;-85
2021/07/20 04:21:01;;;;;;;6.67;5.00;;;;;;;29.10;48.76;100174.13;128416;1087;64193;-86
2021/07/20 04:23:30;;;;;;;8.03;5.40;;;;;;;29.09;48.68;100161.56;128394;1086;64118;-86
2021/07/20 04:26:07;;;;;;;7.90;4.90;;;;;;;29.07;48.53;100169.91;128341;1087;64149;-86
2021/07/20 04:28:35;;;;;;;7.83;5.20;;;;;;;29.07;48.70;100169.91;128378;1087;64138;-87
2021/07/20 04:31:25;;;;;;;7.87;5.20;;;;;;;29.06;48.84;100168.20;128348;1087;64060;-87
2021/07/20 04:33:51;;;;;;;7.57;5.03;;;;;;;29.05;48.32;100160.23;128385;1087;64016;-85
2021/07/20 04:36:21;;;;;;;7.05;5.10;;;;;;;29.05;48.35;100163.78;128370;1085;64127;-86
2021/07/20 04:38:48;;;;;;;10.07;5.10;;;;;;;29.05;48.33;100168.38;128367;1086;64312;-87
2021/07/20 04:41:20;;;;;;;14.37;5.70;;;;;;;29.03;48.28;100168.56;128379;1087;64292;-87
2021/07/20 04:43:47;;;;;;;14.53;5.90;;;;;;;29.02;48.31;100176.90;128345;1087;64028;-86
2021/07/20 04:46:14;;;;;;;15.65;5.70;;;;;;;29.02;48.11;100172.30;128341;1086;64179;-86
2021/07/20 04:48:41;;;;;;;15.23;6.00;;;;;;;29.00;47.84;100168.93;128376;1087;64339;-86
2021/07/20 04:51:07;;;;;;;10.17;5.77;;;;;;;29.01;47.94;100172.48;128387;1087;64131;-86
2021/07/20 04:53:39;;;;;;;10.20;5.40;;;;;;;28.98;48.13;100170.96;128328;1087;64179;-86
2021/07/20 04:56:06;;;;;;;8.90;5.63;;;;;;;28.99;47.83;100175.38;128351;1087;64163;-86
2021/07/20 04:58:34;;;;;;;8.87;5.33;;;;;;;28.98;48.07;100172.84;128346;1085;64156;-86
2021/07/20 05:01:00;;;;;;;8.07;5.80;;;;;;;28.98;47.93;100170.13;128384;1087;64131;-86
2021/07/20 05:03:31;;;;;;;12.23;6.20;;;;;;;28.97;47.45;100166.55;128360;1085;64604;-85
2021/07/20 05:05:58;;;;;;;8.70;5.77;;;;;;;28.97;47.91;100168.43;128376;1087;64137;-86
2021/07/20 05:08:26;;;;;;;7.30;5.60;;;;;;;28.97;47.63;100179.30;128396;1087;64211;-86
2021/07/20 05:10:53;;;;;;;9.73;5.80;;;;;;;28.96;47.58;100173.00;128369;1086;64099;-86
2021/07/20 05:13:21;;;;;;;11.83;5.60;;;;;;;28.96;47.41;100169.45;128295;1086;64282;-86
2021/07/20 05:15:56;;;;;;;6.70;5.37;;;;;;;28.96;47.58;100173.00;128339;1086;64103;-86
2021/07/20 05:18:23;;;;;;;7.87;5.27;;;;;;;28.97;47.60;100171.14;128328;1086;64234;-86
2021/07/20 05:20:50;;;;;;;9.97;5.37;;;;;;;28.97;47.73;100173.86;128311;1087;64134;-86
2021/07/20 05:23:17;;;;;;;12.03;5.90;;;;;;;28.97;47.45;100182.02;128300;1086;64203;-86
2021/07/20 05:25:46;;;;;;;7.37;5.23;;;;;;;28.97;47.60;100182.02;128277;1087;64161;-86
2021/07/20 05:28:14;;;;;;;;;;;;;;;28.97;47.54;100184.73;128370;1087;64137;-85
2021/07/20 05:30:41;;;;;;;8.47;5.77;;;;;;;28.95;47.73;100182.19;128388;1086;64291;-86
2021/07/20 05:33:09;;;;;;;10.63;5.73;;;;;;;28.97;47.45;100182.02;128349;1086;64147;-87
2021/07/20 05:35:35;;;;;;;8.87;6.07;;;;;;;28.96;47.31;100186.58;128548;1087;64150;-87
2021/07/20 05:38:03;;;;;;;8.33;5.60;;;;;;;28.97;47.57;100191.00;128357;1086;64291;-86
2021/07/20 05:40:32;;;;;;;10.33;6.57;;;;;;;28.97;47.67;100193.72;128352;1087;64155;-86
2021/07/20 05:43:01;;;;;;;10.80;6.20;;;;;;;28.96;47.51;100192.02;128375;1087;64169;-86
2021/07/20 05:45:37;;;;;;;10.27;5.90;;;;;;;28.96;47.58;100197.45;128358;1087;64141;-87
2021/07/20 05:48:04;;;;;;;9.43;6.10;;;;;;;28.98;47.64;100197.30;128053;1085;64141;-87
2021/07/20 05:50:47;;;;;;;9.63;5.87;;;;;;;28.98;47.42;100200.02;128386;1086;64131;-87
2021/07/20 05:53:16;;;;;;;8.83;5.83;;;;;;;28.97;47.55;100190.16;128392;1085;63907;-87
2021/07/20 05:55:55;;;;;;;8.07;6.10;;;;;;;28.96;47.34;100192.02;128349;1086;64224;-86
2021/07/20 05:58:22;;;;;;;8.03;6.40;;;;;;;28.96;47.46;100192.02;128359;1086;64201;-87
2021/07/20 06:01:02;;;;;;;12.57;6.73;;;;;;;28.95;47.44;100200.34;128376;1087;64214;-86
2021/07/20 06:03:30;;;;;;;11.60;5.70;;;;;;;28.96;47.59;100202.05;128372;1086;64220;-86
2021/07/20 06:05:57;;;;;;;9.37;6.93;;;;;;;28.95;47.21;100205.78;128372;1087;64288;-87
2021/07/20 06:08:24;;;;;;;8.27;6.10;;;;;;;28.95;47.15;100205.78;128339;1086;64198;-86
2021/07/20 06:10:56;;;;;;;9.73;6.40;;;;;;;28.95;47.23;100203.06;128440;1087;63952;-86
2021/07/20 06:13:27;;;;;;;11.20;6.47;;;;;;;28.93;47.19;100204.11;128371;1086;64162;-86
2021/07/20 06:15:54;;;;;;;8.23;6.27;;;;;;;28.93;47.35;100206.83;128387;1087;64140;-86
2021/07/20 06:18:20;;;;;;;9.13;6.83;;;;;;;28.92;47.32;100209.69;128350;1087;64616;-86
2021/07/20 06:20:55;;;;;;;11.73;6.80;;;;;;;28.91;47.17;100206.14;128387;1087;64141;-87
2021/07/20 06:23:21;;;;;;;8.50;6.50;;;;;;;28.91;47.56;100202.59;128376;1085;64252;-85
2021/07/20 06:25:49;;;;;;;8.80;6.30;;;;;;;28.90;47.50;100201.72;128397;1085;64187;-86
2021/07/20 06:28:16;;;;;;;10.55;6.75;;;;;;;28.90;47.16;100190.02;128370;1087;64102;-86
2021/07/20 06:30:44;;;;;;;9.43;7.10;;;;;;;28.91;47.45;100191.72;128360;1087;64239;-86
2021/07/20 06:33:13;;;;;;;10.77;6.93;;;;;;;28.92;47.43;100185.24;128356;1085;64167;-87
2021/07/20 06:36:02;;;;;;;9.63;7.70;;;;;;;28.93;47.41;100195.09;128406;1087;64137;-86
2021/07/20 06:38:29;;;;;;;9.20;7.43;;;;;;;28.93;47.39;100195.09;127900;1087;64278;-87
2021/07/20 06:40:57;;;;;;;10.27;6.93;;;;;;;28.94;47.63;100191.36;127873;1087;64176;-86
2021/07/20 06:43:24;;;;;;;11.40;7.70;;;;;;;28.95;47.46;100198.50;127911;1087;64139;-86
2021/07/20 06:45:50;;;;;;;11.17;7.00;;;;;;;28.93;47.25;100198.68;127858;1087;64243;-86
2021/07/20 06:48:19;;;;;;;10.40;6.93;;;;;;;28.93;47.30;100190.53;127883;1087;64143;-86
2021/07/20 06:50:47;;;;;;;8.87;6.77;;;;;;;28.93;47.44;100185.09;127912;1087;64246;-86
2021/07/20 06:53:13;;;;;;;9.55;7.20;;;;;;;28.94;47.25;100185.92;127925;1087;63914;-86
2021/07/20 06:56:02;;;;;;;10.37;7.57;;;;;;;28.92;47.47;100190.67;127872;1087;62145;-87
2021/07/20 06:58:35;;;;;;;13.50;8.20;;;;;;;28.92;47.40;100185.24;127904;1087;64234;-86
2021/07/20 07:01:04;;;;;;;11.57;8.27;;;;;;;28.91;47.20;100181.69;127911;1087;64234;-86
2021/07/20 07:03:44;;;;;;;8.50;6.80;;;;;;;28.91;47.43;100184.41;127895;1087;64141;-86
2021/07/20 07:06:11;;;;;;;9.80;7.87;;;;;;;28.92;47.46;100179.81;127837;1087;64267;-87
2021/07/20 07:08:40;;;;;;;13.00;7.63;;;;;;;28.92;47.52;100180.67;127917;1087;64293;-86
2021/07/20 07:11:07;;;;;;;13.37;7.73;;;;;;;28.92;47.73;100186.11;127873;1090;64233;-86
2021/07/20 07:13:33;;;;;;;12.10;9.10;;;;;;;28.91;47.40;100181.69;127911;1087;64105;-86
2021/07/20 07:16:00;;;;;;;12.43;8.83;;;;;;;28.91;47.66;100189.84;128108;1087;64248;-86
2021/07/20 07:18:27;;;;;;;14.53;8.40;;;;;;;28.92;47.60;100188.83;128335;1087;64150;-86
2021/07/20 07:20:54;;;;;;;13.87;9.10;;;;;;;28.94;47.48;100188.64;128392;1086;64179;-86
2021/07/20 07:23:21;;;;;;;11.40;8.03;;;;;;;28.94;47.65;100194.08;128330;1085;64134;-87
2021/07/20 07:25:52;;;;;;;10.27;7.83;;;;;;;28.95;47.60;100189.48;128352;1087;64152;-86
2021/07/20 07:28:19;;;;;;;10.97;8.40;;;;;;;28.96;47.20;100188.46;128397;1087;64319;-86
2021/07/20 07:30:48;;;;;;;10.63;7.93;;;;;;;28.97;47.27;100182.84;128382;1087;64818;-86
2021/07/20 07:33:15;;;;;;;10.60;7.97;;;;;;;28.97;47.54;100182.02;128371;1087;64186;-86
2021/07/20 07:35:41;;;;;;;10.57;7.73;;;;;;;29.00;47.58;100184.37;128359;1085;64150;-87
2021/07/20 07:38:08;;;;;;;9.77;7.33;;;;;;;29.00;47.86;100185.23;128303;1085;64186;-86
2021/07/20 07:40:34;;;;;;;10.87;8.17;;;;;;;29.01;47.23;100186.91;128275;1085;64138;-86
2021/07/20 07:43:03;;;;;;;10.20;8.00;;;;;;;29.01;47.32;100189.62;128392;1086;64626;-87
2021/07/20 07:45:29;;;;;;;;;;;;;;;29.02;47.50;100190.48;128393;1085;64038;-87
2021/07/20 07:47:56;;;;;;;11.50;7.87;;;;;;;29.03;47.66;100189.47;128325;1087;64134;-85
2021/07/20 07:50:22;;;;;;;11.83;8.67;;;;;;;29.03;47.27;100182.15;128301;1087;64099;-86
2021/07/20 07:52:50;;;;;;;11.37;8.40;;;;;;;29.04;47.37;100186.56;128351;1087;64135;-86
2021/07/20 07:55:20;;;;;;;10.70;7.87;;;;;;;29.06;47.70;100183.67;128325;1087;64216;-86
2021/07/20 07:57:46;;;;;;;10.87;8.47;;;;;;;29.05;47.52;100182.80;128475;1086;64140;-86
2021/07/20 08:00:13;;;;;;;13.37;8.90;;;;;;;29.06;47.11;100178.23;128362;1086;64272;-85
2021/07/20 08:02:40;;;;;;;12.20;9.37;;;;;;;29.07;47.40;100169.91;128425;1085;63007;-85
2021/07/20 08:05:07;;;;;;;12.60;8.70;;;;;;;29.08;47.48;100173.45;128254;1086;64285;-85
2021/07/20 08:07:34;;;;;;;14.17;9.00;;;;;;;29.09;47.68;100167.00;128304;1086;64137;-84
2021/07/20 08:10:01;;;;;;;11.17;8.87;;;;;;;29.10;47.45;100164.09;128408;1086;64310;-84
2021/07/20 08:12:28;;;;;;;13.23;9.20;;;;;;;29.12;47.16;100173.95;128389;1087;64592;-85
2021/07/20 08:14:55;;;;;;;14.57;8.93;;;;;;;29.13;47.49;100172.94;128416;1086;64285;-85
2021/07/20 08:17:23;;;;;;;12.97;9.00;;;;;;;29.16;47.29;100169.84;128326;1087;63090;-85
2021/07/20 08:19:49;;;;;;;13.20;8.40;;;;;;;29.17;47.51;100174.27;128355;1087;62479;-84
2021/07/20 08:22:18;;;;;;;12.70;8.73;;;;;;;29.17;47.27;100168.83;128028;1087;64289;-86
2021/07/20 08:24:55;;;;;;;11.60;9.00;;;;;;;29.18;47.35;100168.65;128361;1085;64326;-86
2021/07/20 08:27:33;;;;;;;13.20;9.00;;;;;;;29.19;47.21;100167.63;128776;1087;64121;-85
2021/07/20 08:30:00;;;;;;;11.33;9.00;;;;;;;29.20;47.38;100169.33;128493;1087;63977;-84
2021/07/20 08:32:30;;;;;;;10.57;9.13;;;;;;;29.23;46.89;100176.28;127973;1087;64013;-85
2021/07/20 08:34:59;;;;;;;14.77;10.17;;;;;;;29.23;47.18;100168.96;129482;1086;62370;-85
2021/07/20 08:37:27;;;;;;;11.63;8.70;;;;;;;29.25;47.00;100171.50;129476;1086;61843;-85
2021/07/20 08:39:54;;;;;;;11.03;9.68;;;;;;;29.26;47.27;100182.22;129497;1087;62566;-85
2021/07/20 08:42:25;;;;;;;12.50;9.10;;;;;;;29.30;47.22;100181.88;129402;1087;62133;-85
2021/07/20 08:45:26;;;;;;;11.50;9.27;;;;;;;29.31;47.19;100180.83;128209;1087;64227;-85
2021/07/20 08:48:28;;;;;;;10.90;9.40;;;;;;;29.33;47.34;100178.80;127815;1090;64166;-85
2021/07/20 08:51:04;;;;;;;11.27;9.47;;;;;;;29.31;47.05;100173.55;127570;1093;64150;-86
2021/07/20 08:53:33;;;;;;;11.57;9.27;;;;;;;29.33;47.18;100173.36;127801;1092;63952;-85
2021/07/20 08:56:01;;;;;;;12.83;9.83;;;;;;;29.33;46.98;100165.20;127523;1092;64333;-86
2021/07/20 08:58:31;;;;;;;16.30;10.37;;;;;;;29.32;46.99;100164.34;127644;1093;64204;-84
2021/07/20 09:01:10;;;;;;;11.73;9.83;;;;;;;29.33;47.27;100162.48;127651;1093;64552;-85
2021/07/20 09:03:55;;;;;;;11.60;9.67;;;;;;;29.33;46.88;100162.48;127572;1091;64358;-85
2021/07/20 09:06:30;;;;;;;13.40;9.60;;;;;;;29.33;46.82;100165.20;127576;1092;64162;-85
2021/07/20 09:09:07;;;;;;;12.23;9.40;;;;;;;29.33;47.27;100170.64;127646;1093;64559;-85
2021/07/20 09:11:48;;;;;;;12.90;10.43;;;;;;;29.33;47.02;100162.48;127539;1092;64253;-85
2021/07/20 09:14:22;;;;;;;12.20;10.47;;;;;;;29.33;47.35;100162.48;127686;1093;64131;-84
2021/07/20 09:16:51;;;;;;;15.67;9.73;;;;;;;29.33;47.21;100168.75;127526;1091;64326;-84
2021/07/20 09:19:35;;;;;;;13.43;10.63;;;;;;;29.32;46.95;100172.49;127601;1091;64262;-85
2021/07/20 09:22:08;;;;;;;11.77;9.87;;;;;;;29.33;46.77;100166.04;127630;1093;64282;-85
2021/07/20 09:24:58;;;;;;;14.17;10.87;;;;;;;29.33;47.12;100168.75;127810;1090;64282;-84
2021/07/20 09:27:38;;;;;;;12.13;10.00;;;;;;;29.33;46.75;100163.31;127714;1089;64507;-85
2021/07/20 09:30:15;;;;;;;14.50;10.43;;;;;;;29.32;46.96;100164.34;128012;1085;64154;-86
2021/07/20 09:33:19;;;;;;;14.93;10.53;;;;;;;29.32;46.90;100161.63;128334;1087;64109;-85
2021/07/20 09:35:59;;;;;;;11.13;9.93;;;;;;;29.33;46.73;100165.20;128360;1085;64208;-85
2021/07/20 09:38:31;;;;;;;12.47;10.23;;;;;;;29.31;47.05;100159.95;128355;1086;64300;-85
2021/07/20 09:41:27;;;;;;;14.47;10.63;;;;;;;29.33;47.02;100157.05;128362;1087;64137;-86
2021/07/20 09:44:03;;;;;;;14.37;10.07;;;;;;;29.32;46.99;100158.90;127920;1087;64102;-87
2021/07/20 09:46:46;;;;;;;14.57;11.07;;;;;;;29.32;46.99;100155.34;127936;1087;64131;-85
2021/07/20 09:49:28;;;;;;;12.63;10.20;;;;;;;29.33;46.85;100152.45;127857;1087;64131;-85
2021/07/20 09:52:08;;;;;;;12.70;10.53;;;;;;;29.33;46.92;100154.33;127859;1087;64163;-86
2021/07/20 09:55:14;;;;;;;11.70;10.07;;;;;;;29.33;47.09;100147.01;127893;1085;64105;-86
2021/07/20 09:58:09;;;;;;;12.43;10.23;;;;;;;29.34;46.77;100156.03;127655;1089;64141;-86
2021/07/20 10:00:41;;;;;;;14.40;10.67;;;;;;;29.33;46.96;100149.73;127657;1090;64172;-86
2021/07/20 10:03:52;;;;;;;11.80;9.97;;;;;;;29.35;47.17;100149.55;127705;1090;64339;-86
2021/07/20 10:06:48;;;;;;;13.27;9.67;;;;;;;29.34;46.79;100150.59;127479;1090;64153;-87
2021/07/20 10:09:28;;;;;;;13.63;10.70;;;;;;;29.34;47.00;100145.98;127304;1090;64105;-86
2021/07/20 10:11:58;;;;;;;12.03;10.10;;;;;;;29.34;46.69;100137.83;127517;1090;64169;-83
2021/07/20 10:14:27;;;;;;;14.50;10.50;;;;;;;29.35;47.12;100144.10;127539;1090;64230;-86
2021/07/20 10:17:12;;;;;;;12.60;9.90;;;;;;;29.35;47.25;100142.25;127557;1089;64309;-86
2021/07/20 10:19:47;;;;;;;11.53;10.33;;;;;;;29.37;46.81;100150.22;127555;1090;64294;-87
2021/07/20 10:22:20;;;;;;;11.90;10.60;;;;;;;29.37;46.81;100142.06;127863;1090;64160;-83
2021/07/20 10:24:50;;;;;;;17.00;10.80;;;;;;;29.37;46.92;100142.91;128488;1090;61907;-83
2021/07/20 10:27:25;;;;;;;11.00;9.90;;;;;;;29.38;47.03;100138.33;127858;1090;64245;-86
2021/07/20 10:30:06;;;;;;;13.20;9.63;;;;;;;29.39;47.27;100142.72;127790;1090;64114;-87
2021/07/20 10:32:54;;;;;;;13.43;9.93;;;;;;;29.39;46.91;100140.86;127787;1089;64288;-86
2021/07/20 10:35:51;;;;;;;12.20;10.50;;;;;;;29.40;46.87;100142.56;128140;1086;64167;-84
2021/07/20 10:38:20;;;;;;;14.50;10.50;;;;;;;29.40;47.24;100142.56;128016;1085;64349;-84
2021/07/20 10:40:49;;;;;;;13.27;9.57;;;;;;;29.41;46.65;100143.39;128273;1086;64138;-86
2021/07/20 10:43:18;;;;;;;;;;;;;;;29.40;46.87;100139.84;128364;1087;64145;-87
2021/07/20 10:45:51;;;;;;;11.90;9.60;;;;;;;29.39;46.77;100137.28;128364;1087;64145;-86
2021/07/20 10:48:24;;;;;;;12.27;9.63;;;;;;;29.40;46.72;100136.26;128363;1087;64159;-86
2021/07/20 10:51:16;;;;;;;10.93;9.30;;;;;;;29.39;46.72;100134.56;128378;1086;63910;-86
2021/07/20 10:53:49;;;;;;;12.00;8.90;;;;;;;29.39;46.71;100131.84;128353;1087;63438;-86
2021/07/20 10:56:33;;;;;;;12.63;9.77;;;;;;;29.38;46.72;100133.73;128346;1086;64284;-86
2021/07/20 10:59:10;;;;;;;11.40;9.67;;;;;;;29.38;46.68;100122.84;128313;1085;64134;-85
2021/07/20 11:02:07;;;;;;;10.57;9.10;;;;;;;29.39;46.65;100123.69;128248;1087;64279;-86
2021/07/20 11:05:08;;;;;;;9.80;8.80;;;;;;;29.38;46.93;100114.70;128227;1085;64168;-85
2021/07/20 11:07:50;;;;;;;10.77;8.83;;;;;;;29.39;46.66;100112.81;128249;1086;64222;-85
2021/07/20 11:10:24;;;;;;;10.90;8.60;;;;;;;29.39;47.03;100118.25;128302;1085;62381;-85
2021/07/20 11:12:55;;;;;;;11.77;9.20;;;;;;;29.38;46.68;100109.26;128251;1087;63977;-85
2021/07/20 11:15:21;;;;;;;10.77;8.57;;;;;;;29.39;46.87;100101.94;128372;1087;64156;-85
2021/07/20 11:17:49;;;;;;;10.53;9.40;;;;;;;29.40;46.76;100100.91;128358;1086;64240;-86
2021/07/20 11:20:19;;;;;;;10.23;8.85;;;;;;;29.39;46.92;100094.64;128416;1087;64139;-86
2021/07/20 11:22:53;;;;;;;10.10;8.93;;;;;;;29.39;46.90;100085.63;128368;1087;64131;-86
2021/07/20 11:25:21;;;;;;;10.33;8.70;;;;;;;29.39;46.47;100089.20;128412;1086;64131;-86
2021/07/20 11:27:48;;;;;;;11.23;8.80;;;;;;;29.40;46.51;100084.60;128362;1087;64129;-85
2021/07/20 11:30:18;;;;;;;11.00;8.80;;;;;;;29.39;46.80;100088.34;128387;1087;65320;-86
2021/07/20 11:32:48;;;;;;;10.97;8.87;;;;;;;29.39;46.73;100080.19;128373;1087;64150;-86
2021/07/20 11:35:18;;;;;;;10.70;8.50;;;;;;;29.39;46.56;100085.63;128406;1085;64467;-86
2021/07/20 11:37:51;;;;;;;10.83;8.80;;;;;;;29.39;46.76;100086.48;128478;1087;64172;-86
2021/07/20 11:40:21;;;;;;;10.60;8.83;;;;;;;29.40;46.78;100079.17;128527;1087;64150;-85